sensor_id;sensor_type;location;lat;lon;timestamp;P1;durP1;ratioP1;P2;durP2;ratioP2
24635;SDS011;12772;49.794;10.024;2023-07-28T00:02:19;2.45;;;2.35;;
24635;SDS011;12772;49.794;10.024;2023-07-28T00:06:21;3.15;;;2.63;;
24635;SDS011;12772;49.794;10.024;2023-07-28T00:10:23;3.00;;;2.80;;
24635;SDS011;12772;49.794;10.024;2023-07-28T00:14:25;3.33;;;3.03;;
24635;SDS011;12772;49.794;10.024;2023-07-28T00:18:28;4.05;;;2.80;;
24635;SDS011;12772;49.794;10.024;2023-07-28T00:22:30;3.00;;;2.80;;
24635;SDS011;12772;49.794;10.024;2023-07-28T00:26:32;3.42;;;3.08;;
24635;SDS011;12772;49.794;10.024;2023-07-28T00:30:34;4.25;;;2.85;;
24635;SDS011;12772;49.794;10.024;2023-07-28T00:34:36;2.88;;;2.67;;
24635;SDS011;12772;49.794;10.024;2023-07-28T00:38:38;3.13;;;2.90;;
24635;SDS011;12772;49.794;10.024;2023-07-28T00:42:40;3.33;;;3.10;;
24635;SDS011;12772;49.794;10.024;2023-07-28T00:46:43;3.08;;;2.80;;
24635;SDS011;12772;49.794;10.024;2023-07-28T00:50:47;3.20;;;2.97;;
24635;SDS011;12772;49.794;10.024;2023-07-28T00:54:49;4.00;;;3.05;;
24635;SDS011;12772;49.794;10.024;2023-07-28T00:58:51;3.25;;;2.70;;
24635;SDS011;12772;49.794;10.024;2023-07-28T01:02:54;2.63;;;2.42;;
24635;SDS011;12772;49.794;10.024;2023-07-28T01:07:09;3.33;;;3.03;;
24635;SDS011;12772;49.794;10.024;2023-07-28T01:11:15;2.80;;;2.60;;
24635;SDS011;12772;49.794;10.024;2023-07-28T01:15:17;3.40;;;3.10;;
24635;SDS011;12772;49.794;10.024;2023-07-28T01:19:20;3.25;;;2.97;;
24635;SDS011;12772;49.794;10.024;2023-07-28T01:23:44;3.10;;;2.72;;
24635;SDS011;12772;49.794;10.024;2023-07-28T01:27:57;3.63;;;2.92;;
24635;SDS011;12772;49.794;10.024;2023-07-28T01:32:01;2.72;;;2.53;;
24635;SDS011;12772;49.794;10.024;2023-07-28T01:36:04;3.08;;;2.42;;
24635;SDS011;12772;49.794;10.024;2023-07-28T01:40:07;3.00;;;2.80;;
24635;SDS011;12772;49.794;10.024;2023-07-28T01:44:10;2.88;;;2.67;;
24635;SDS011;12772;49.794;10.024;2023-07-28T01:48:12;2.97;;;2.78;;
24635;SDS011;12772;49.794;10.024;2023-07-28T01:52:14;2.83;;;2.63;;
24635;SDS011;12772;49.794;10.024;2023-07-28T01:56:16;2.92;;;2.67;;
24635;SDS011;12772;49.794;10.024;2023-07-28T02:00:18;2.67;;;2.47;;
24635;SDS011;12772;49.794;10.024;2023-07-28T02:04:20;3.30;;;2.67;;
24635;SDS011;12772;49.794;10.024;2023-07-28T02:08:22;2.92;;;2.67;;
24635;SDS011;12772;49.794;10.024;2023-07-28T02:12:24;3.15;;;2.42;;
24635;SDS011;12772;49.794;10.024;2023-07-28T02:16:26;2.78;;;2.50;;
24635;SDS011;12772;49.794;10.024;2023-07-28T02:20:31;2.65;;;2.45;;
24635;SDS011;12772;49.794;10.024;2023-07-28T02:24:33;3.00;;;2.78;;
24635;SDS011;12772;49.794;10.024;2023-07-28T02:28:35;2.72;;;2.53;;
24635;SDS011;12772;49.794;10.024;2023-07-28T02:32:37;2.55;;;2.35;;
24635;SDS011;12772;49.794;10.024;2023-07-28T02:36:39;2.50;;;2.30;;
24635;SDS011;12772;49.794;10.024;2023-07-28T02:40:42;2.67;;;2.47;;
24635;SDS011;12772;49.794;10.024;2023-07-28T02:44:44;2.67;;;2.13;;
24635;SDS011;12772;49.794;10.024;2023-07-28T02:48:46;2.13;;;2.03;;
24635;SDS011;12772;49.794;10.024;2023-07-28T02:52:48;3.08;;;2.33;;
24635;SDS011;12772;49.794;10.024;2023-07-28T02:56:50;2.15;;;2.05;;
24635;SDS011;12772;49.794;10.024;2023-07-28T03:00:53;2.28;;;2.08;;
24635;SDS011;12772;49.794;10.024;2023-07-28T03:04:55;2.58;;;2.38;;
24635;SDS011;12772;49.794;10.024;2023-07-28T03:08:58;2.00;;;1.85;;
24635;SDS011;12772;49.794;10.024;2023-07-28T03:13:00;2.40;;;1.90;;
24635;SDS011;12772;49.794;10.024;2023-07-28T03:17:03;1.88;;;1.77;;
24635;SDS011;12772;49.794;10.024;2023-07-28T03:21:05;1.90;;;1.80;;
24635;SDS011;12772;49.794;10.024;2023-07-28T03:25:07;2.20;;;2.10;;
24635;SDS011;12772;49.794;10.024;2023-07-28T03:29:09;2.38;;;2.22;;
24635;SDS011;12772;49.794;10.024;2023-07-28T03:33:11;2.30;;;2.10;;
24635;SDS011;12772;49.794;10.024;2023-07-28T03:37:13;2.03;;;1.92;;
24635;SDS011;12772;49.794;10.024;2023-07-28T03:41:15;1.90;;;1.80;;
24635;SDS011;12772;49.794;10.024;2023-07-28T03:45:17;2.03;;;1.90;;
24635;SDS011;12772;49.794;10.024;2023-07-28T03:49:20;2.20;;;2.00;;
24635;SDS011;12772;49.794;10.024;2023-07-28T03:53:22;1.75;;;1.65;;
24635;SDS011;12772;49.794;10.024;2023-07-28T03:57:24;1.90;;;1.80;;
24635;SDS011;12772;49.794;10.024;2023-07-28T04:01:26;1.60;;;1.50;;
24635;SDS011;12772;49.794;10.024;2023-07-28T04:05:28;1.67;;;1.50;;
24635;SDS011;12772;49.794;10.024;2023-07-28T04:09:30;1.73;;;1.63;;
24635;SDS011;12772;49.794;10.024;2023-07-28T04:13:33;2.38;;;1.58;;
24635;SDS011;12772;49.794;10.024;2023-07-28T04:17:37;1.40;;;1.30;;
24635;SDS011;12772;49.794;10.024;2023-07-28T04:21:39;1.80;;;1.70;;
24635;SDS011;12772;49.794;10.024;2023-07-28T04:25:42;1.70;;;1.30;;
24635;SDS011;12772;49.794;10.024;2023-07-28T04:29:44;1.48;;;1.20;;
24635;SDS011;12772;49.794;10.024;2023-07-28T04:33:46;2.40;;;1.35;;
24635;SDS011;12772;49.794;10.024;2023-07-28T04:37:48;1.23;;;1.13;;
24635;SDS011;12772;49.794;10.024;2023-07-28T04:41:50;1.10;;;1.10;;
24635;SDS011;12772;49.794;10.024;2023-07-28T04:45:52;1.73;;;1.48;;
24635;SDS011;12772;49.794;10.024;2023-07-28T04:49:54;6.22;;;1.33;;
24635;SDS011;12772;49.794;10.024;2023-07-28T04:53:56;1.20;;;1.20;;
24635;SDS011;12772;49.794;10.024;2023-07-28T04:57:58;1.40;;;1.30;;
24635;SDS011;12772;49.794;10.024;2023-07-28T05:02:00;1.70;;;1.33;;
24635;SDS011;12772;49.794;10.024;2023-07-28T05:06:02;1.27;;;1.17;;
24635;SDS011;12772;49.794;10.024;2023-07-28T05:10:05;1.35;;;1.30;;
24635;SDS011;12772;49.794;10.024;2023-07-28T05:14:08;1.65;;;1.30;;
24635;SDS011;12772;49.794;10.024;2023-07-28T05:18:10;1.95;;;1.25;;
24635;SDS011;12772;49.794;10.024;2023-07-28T05:22:12;1.52;;;1.20;;
24635;SDS011;12772;49.794;10.024;2023-07-28T05:26:14;1.10;;;1.10;;
24635;SDS011;12772;49.794;10.024;2023-07-28T05:30:16;1.30;;;1.23;;
24635;SDS011;12772;49.794;10.024;2023-07-28T05:34:18;1.17;;;1.17;;
24635;SDS011;12772;49.794;10.024;2023-07-28T05:38:20;1.83;;;1.38;;
24635;SDS011;12772;49.794;10.024;2023-07-28T05:42:22;1.75;;;1.65;;
24635;SDS011;12772;49.794;10.024;2023-07-28T05:46:24;3.65;;;1.45;;
24635;SDS011;12772;49.794;10.024;2023-07-28T05:50:26;2.08;;;1.83;;
24635;SDS011;12772;49.794;10.024;2023-07-28T05:54:28;1.65;;;1.55;;
24635;SDS011;12772;49.794;10.024;2023-07-28T05:58:30;1.85;;;1.60;;
24635;SDS011;12772;49.794;10.024;2023-07-28T06:02:32;1.08;;;1.02;;
24635;SDS011;12772;49.794;10.024;2023-07-28T06:06:34;1.30;;;1.17;;
24635;SDS011;12772;49.794;10.024;2023-07-28T06:10:36;1.38;;;1.35;;
24635;SDS011;12772;49.794;10.024;2023-07-28T06:14:38;1.85;;;1.58;;
24635;SDS011;12772;49.794;10.024;2023-07-28T06:18:41;1.83;;;1.42;;
24635;SDS011;12772;49.794;10.024;2023-07-28T06:22:43;2.10;;;1.90;;
24635;SDS011;12772;49.794;10.024;2023-07-28T06:26:45;1.75;;;1.38;;
24635;SDS011;12772;49.794;10.024;2023-07-28T06:30:47;2.90;;;1.80;;
24635;SDS011;12772;49.794;10.024;2023-07-28T06:34:55;2.00;;;1.75;;
24635;SDS011;12772;49.794;10.024;2023-07-28T06:38:58;2.75;;;1.50;;
24635;SDS011;12772;49.794;10.024;2023-07-28T06:43:00;1.70;;;1.60;;
24635;SDS011;12772;49.794;10.024;2023-07-28T06:47:02;2.30;;;1.50;;
24635;SDS011;12772;49.794;10.024;2023-07-28T06:51:04;4.60;;;1.60;;
24635;SDS011;12772;49.794;10.024;2023-07-28T06:55:06;1.27;;;1.27;;
24635;SDS011;12772;49.794;10.024;2023-07-28T06:59:08;3.63;;;1.30;;
24635;SDS011;12772;49.794;10.024;2023-07-28T07:03:10;1.52;;;1.40;;
24635;SDS011;12772;49.794;10.024;2023-07-28T07:07:13;2.05;;;1.30;;
24635;SDS011;12772;49.794;10.024;2023-07-28T07:11:16;1.35;;;1.25;;
24635;SDS011;12772;49.794;10.024;2023-07-28T07:15:18;1.30;;;1.30;;
24635;SDS011;12772;49.794;10.024;2023-07-28T07:19:20;1.58;;;1.25;;
24635;SDS011;12772;49.794;10.024;2023-07-28T07:23:22;1.60;;;1.50;;
24635;SDS011;12772;49.794;10.024;2023-07-28T07:27:24;2.60;;;1.30;;
24635;SDS011;12772;49.794;10.024;2023-07-28T07:31:26;1.38;;;1.38;;
24635;SDS011;12772;49.794;10.024;2023-07-28T07:35:28;1.13;;;1.13;;
24635;SDS011;12772;49.794;10.024;2023-07-28T07:39:30;1.45;;;1.35;;
24635;SDS011;12772;49.794;10.024;2023-07-28T07:43:32;1.83;;;1.52;;
24635;SDS011;12772;49.794;10.024;2023-07-28T07:47:34;1.98;;;1.63;;
24635;SDS011;12772;49.794;10.024;2023-07-28T07:51:36;1.40;;;1.10;;
24635;SDS011;12772;49.794;10.024;2023-07-28T07:55:38;1.25;;;1.25;;
24635;SDS011;12772;49.794;10.024;2023-07-28T07:59:40;2.15;;;1.25;;
24635;SDS011;12772;49.794;10.024;2023-07-28T08:03:42;1.20;;;1.20;;
24635;SDS011;12772;49.794;10.024;2023-07-28T08:07:44;1.58;;;1.48;;
24635;SDS011;12772;49.794;10.024;2023-07-28T08:11:47;1.27;;;1.27;;
24635;SDS011;12772;49.794;10.024;2023-07-28T08:15:50;1.25;;;1.25;;
24635;SDS011;12772;49.794;10.024;2023-07-28T08:19:52;1.52;;;1.42;;
24635;SDS011;12772;49.794;10.024;2023-07-28T08:23:54;1.67;;;1.58;;
24635;SDS011;12772;49.794;10.024;2023-07-28T08:27:56;1.20;;;1.20;;
24635;SDS011;12772;49.794;10.024;2023-07-28T08:31:59;1.63;;;1.52;;
24635;SDS011;12772;49.794;10.024;2023-07-28T08:36:02;1.10;;;1.10;;
24635;SDS011;12772;49.794;10.024;2023-07-28T08:40:04;1.20;;;1.20;;
24635;SDS011;12772;49.794;10.024;2023-07-28T08:44:07;2.15;;;1.52;;
24635;SDS011;12772;49.794;10.024;2023-07-28T08:48:09;1.50;;;1.40;;
24635;SDS011;12772;49.794;10.024;2023-07-28T08:52:13;1.73;;;1.30;;
24635;SDS011;12772;49.794;10.024;2023-07-28T08:56:18;1.65;;;1.15;;
24635;SDS011;12772;49.794;10.024;2023-07-28T09:00:22;3.95;;;1.30;;
24635;SDS011;12772;49.794;10.024;2023-07-28T09:04:26;2.58;;;1.20;;
24635;SDS011;12772;49.794;10.024;2023-07-28T09:08:31;1.30;;;1.30;;
24635;SDS011;12772;49.794;10.024;2023-07-28T09:12:34;1.70;;;1.60;;
24635;SDS011;12772;49.794;10.024;2023-07-28T09:16:36;1.90;;;1.80;;
24635;SDS011;12772;49.794;10.024;2023-07-28T09:20:38;1.90;;;1.45;;
24635;SDS011;12772;49.794;10.024;2023-07-28T09:24:42;1.95;;;1.50;;
24635;SDS011;12772;49.794;10.024;2023-07-28T09:28:44;1.60;;;1.50;;
24635;SDS011;12772;49.794;10.024;2023-07-28T09:32:47;1.73;;;1.58;;
24635;SDS011;12772;49.794;10.024;2023-07-28T09:36:50;1.58;;;1.50;;
24635;SDS011;12772;49.794;10.024;2023-07-28T09:40:52;1.60;;;1.30;;
24635;SDS011;12772;49.794;10.024;2023-07-28T09:44:55;1.52;;;1.42;;
24635;SDS011;12772;49.794;10.024;2023-07-28T09:48:59;1.50;;;1.40;;
24635;SDS011;12772;49.794;10.024;2023-07-28T09:53:02;1.67;;;1.58;;
24635;SDS011;12772;49.794;10.024;2023-07-28T09:57:07;1.90;;;1.42;;
24635;SDS011;12772;49.794;10.024;2023-07-28T10:01:14;1.83;;;1.73;;
24635;SDS011;12772;49.794;10.024;2023-07-28T10:05:16;1.90;;;1.80;;
24635;SDS011;12772;49.794;10.024;2023-07-28T10:09:18;1.77;;;1.67;;
24635;SDS011;12772;49.794;10.024;2023-07-28T10:13:21;1.80;;;1.70;;
24635;SDS011;12772;49.794;10.024;2023-07-28T10:17:24;1.67;;;1.65;;
24635;SDS011;12772;49.794;10.024;2023-07-28T10:21:39;1.70;;;1.60;;
24635;SDS011;12772;49.794;10.024;2023-07-28T10:25:43;2.75;;;1.73;;
24635;SDS011;12772;49.794;10.024;2023-07-28T10:29:55;1.75;;;1.65;;
24635;SDS011;12772;49.794;10.024;2023-07-28T10:33:58;1.77;;;1.60;;
24635;SDS011;12772;49.794;10.024;2023-07-28T10:38:27;1.55;;;1.50;;
24635;SDS011;12772;49.794;10.024;2023-07-28T10:42:40;1.90;;;1.80;;
24635;SDS011;12772;49.794;10.024;2023-07-28T10:46:42;1.48;;;1.48;;
24635;SDS011;12772;49.794;10.024;2023-07-28T10:50:44;1.50;;;1.40;;
24635;SDS011;12772;49.794;10.024;2023-07-28T10:54:46;1.70;;;1.60;;
24635;SDS011;12772;49.794;10.024;2023-07-28T10:59:02;2.45;;;1.58;;
24635;SDS011;12772;49.794;10.024;2023-07-28T11:03:07;2.45;;;1.50;;
24635;SDS011;12772;49.794;10.024;2023-07-28T11:07:10;1.40;;;1.40;;
24635;SDS011;12772;49.794;10.024;2023-07-28T11:11:13;2.00;;;1.70;;
24635;SDS011;12772;49.794;10.024;2023-07-28T11:15:16;2.15;;;1.48;;
24635;SDS011;12772;49.794;10.024;2023-07-28T11:19:19;1.42;;;1.30;;
24635;SDS011;12772;49.794;10.024;2023-07-28T11:23:25;1.65;;;1.55;;
24635;SDS011;12772;49.794;10.024;2023-07-28T11:27:27;1.55;;;1.52;;
24635;SDS011;12772;49.794;10.024;2023-07-28T11:31:29;1.58;;;1.48;;
24635;SDS011;12772;49.794;10.024;2023-07-28T11:35:31;1.60;;;1.40;;
24635;SDS011;12772;49.794;10.024;2023-07-28T11:39:33;1.73;;;1.63;;
24635;SDS011;12772;49.794;10.024;2023-07-28T11:43:36;1.50;;;1.40;;
24635;SDS011;12772;49.794;10.024;2023-07-28T11:47:38;1.88;;;1.45;;
24635;SDS011;12772;49.794;10.024;2023-07-28T11:51:40;1.85;;;1.70;;
24635;SDS011;12772;49.794;10.024;2023-07-28T11:55:43;1.50;;;1.40;;
24635;SDS011;12772;49.794;10.024;2023-07-28T11:59:46;1.63;;;1.52;;
24635;SDS011;12772;49.794;10.024;2023-07-28T12:03:48;1.60;;;1.50;;
24635;SDS011;12772;49.794;10.024;2023-07-28T12:07:50;1.45;;;1.40;;
24635;SDS011;12772;49.794;10.024;2023-07-28T12:11:52;1.05;;;1.05;;
24635;SDS011;12772;49.794;10.024;2023-07-28T12:15:54;1.20;;;1.20;;
24635;SDS011;12772;49.794;10.024;2023-07-28T12:24:10;1.60;;;1.50;;
24635;SDS011;12772;49.794;10.024;2023-07-28T12:28:12;1.20;;;1.20;;
24635;SDS011;12772;49.794;10.024;2023-07-28T12:32:15;1.48;;;1.38;;
24635;SDS011;12772;49.794;10.024;2023-07-28T12:36:17;1.00;;;1.00;;
24635;SDS011;12772;49.794;10.024;2023-07-28T12:40:19;1.10;;;1.10;;
24635;SDS011;12772;49.794;10.024;2023-07-28T12:44:21;1.23;;;1.23;;
24635;SDS011;12772;49.794;10.024;2023-07-28T12:48:23;1.77;;;1.65;;
24635;SDS011;12772;49.794;10.024;2023-07-28T12:52:25;1.10;;;1.10;;
24635;SDS011;12772;49.794;10.024;2023-07-28T12:56:27;1.00;;;1.00;;
24635;SDS011;12772;49.794;10.024;2023-07-28T13:00:29;2.47;;;1.30;;
24635;SDS011;12772;49.794;10.024;2023-07-28T13:04:31;1.40;;;1.38;;
24635;SDS011;12772;49.794;10.024;2023-07-28T13:08:33;1.40;;;1.40;;
24635;SDS011;12772;49.794;10.024;2023-07-28T13:12:36;1.13;;;1.13;;
24635;SDS011;12772;49.794;10.024;2023-07-28T13:16:39;1.40;;;1.30;;
24635;SDS011;12772;49.794;10.024;2023-07-28T13:20:41;1.15;;;1.10;;
24635;SDS011;12772;49.794;10.024;2023-07-28T13:24:43;1.55;;;1.45;;
24635;SDS011;12772;49.794;10.024;2023-07-28T13:28:45;1.20;;;1.20;;
24635;SDS011;12772;49.794;10.024;2023-07-28T13:32:48;2.45;;;1.20;;
24635;SDS011;12772;49.794;10.024;2023-07-28T13:36:50;1.02;;;1.02;;
24635;SDS011;12772;49.794;10.024;2023-07-28T13:40:52;1.40;;;1.30;;
24635;SDS011;12772;49.794;10.024;2023-07-28T13:44:54;1.35;;;1.20;;
24635;SDS011;12772;49.794;10.024;2023-07-28T13:48:56;1.98;;;1.25;;
24635;SDS011;12772;49.794;10.024;2023-07-28T13:52:58;1.20;;;1.20;;
24635;SDS011;12772;49.794;10.024;2023-07-28T13:57:00;1.40;;;1.30;;
24635;SDS011;12772;49.794;10.024;2023-07-28T14:01:03;1.50;;;1.40;;
24635;SDS011;12772;49.794;10.024;2023-07-28T14:05:05;1.50;;;1.40;;
24635;SDS011;12772;49.794;10.024;2023-07-28T14:09:08;1.60;;;1.50;;
24635;SDS011;12772;49.794;10.024;2023-07-28T14:13:10;1.50;;;1.40;;
24635;SDS011;12772;49.794;10.024;2023-07-28T14:17:12;1.88;;;1.38;;
24635;SDS011;12772;49.794;10.024;2023-07-28T14:21:14;1.73;;;1.48;;
24635;SDS011;12772;49.794;10.024;2023-07-28T14:25:16;1.50;;;1.42;;
24635;SDS011;12772;49.794;10.024;2023-07-28T14:29:18;2.42;;;1.40;;
24635;SDS011;12772;49.794;10.024;2023-07-28T14:33:20;2.03;;;1.38;;
24635;SDS011;12772;49.794;10.024;2023-07-28T14:37:22;1.40;;;1.30;;
24635;SDS011;12772;49.794;10.024;2023-07-28T14:41:24;1.65;;;1.55;;
24635;SDS011;12772;49.794;10.024;2023-07-28T14:45:26;1.33;;;1.33;;
24635;SDS011;12772;49.794;10.024;2023-07-28T14:49:28;1.30;;;1.20;;
24635;SDS011;12772;49.794;10.024;2023-07-28T14:53:34;1.50;;;1.40;;
24635;SDS011;12772;49.794;10.024;2023-07-28T14:57:38;1.60;;;1.50;;
24635;SDS011;12772;49.794;10.024;2023-07-28T15:01:39;1.55;;;1.45;;
24635;SDS011;12772;49.794;10.024;2023-07-28T15:05:41;1.40;;;1.40;;
24635;SDS011;12772;49.794;10.024;2023-07-28T15:09:44;1.52;;;1.42;;
24635;SDS011;12772;49.794;10.024;2023-07-28T15:13:46;1.42;;;1.42;;
24635;SDS011;12772;49.794;10.024;2023-07-28T15:17:48;1.48;;;1.38;;
24635;SDS011;12772;49.794;10.024;2023-07-28T15:21:50;1.33;;;1.23;;
24635;SDS011;12772;49.794;10.024;2023-07-28T15:25:52;1.17;;;1.17;;
24635;SDS011;12772;49.794;10.024;2023-07-28T15:29:57;1.15;;;1.15;;
24635;SDS011;12772;49.794;10.024;2023-07-28T15:33:59;1.10;;;1.00;;
24635;SDS011;12772;49.794;10.024;2023-07-28T15:38:01;0.80;;;0.80;;
24635;SDS011;12772;49.794;10.024;2023-07-28T15:42:04;0.85;;;0.85;;
24635;SDS011;12772;49.794;10.024;2023-07-28T15:46:06;0.93;;;0.93;;
24635;SDS011;12772;49.794;10.024;2023-07-28T15:50:08;0.88;;;0.88;;
24635;SDS011;12772;49.794;10.024;2023-07-28T15:54:11;1.17;;;1.08;;
24635;SDS011;12772;49.794;10.024;2023-07-28T15:58:13;1.88;;;1.15;;
24635;SDS011;12772;49.794;10.024;2023-07-28T16:02:15;0.90;;;0.90;;
24635;SDS011;12772;49.794;10.024;2023-07-28T16:06:17;0.73;;;0.73;;
24635;SDS011;12772;49.794;10.024;2023-07-28T16:10:19;0.80;;;0.80;;
24635;SDS011;12772;49.794;10.024;2023-07-28T16:14:21;1.00;;;0.88;;
24635;SDS011;12772;49.794;10.024;2023-07-28T16:18:23;1.20;;;0.98;;
24635;SDS011;12772;49.794;10.024;2023-07-28T16:22:26;1.10;;;1.00;;
24635;SDS011;12772;49.794;10.024;2023-07-28T16:26:28;1.00;;;1.00;;
24635;SDS011;12772;49.794;10.024;2023-07-28T16:30:30;0.80;;;0.80;;
24635;SDS011;12772;49.794;10.024;2023-07-28T16:34:32;0.98;;;0.98;;
24635;SDS011;12772;49.794;10.024;2023-07-28T16:38:34;1.08;;;1.08;;
24635;SDS011;12772;49.794;10.024;2023-07-28T16:42:36;1.00;;;1.00;;
24635;SDS011;12772;49.794;10.024;2023-07-28T16:46:38;1.27;;;1.02;;
24635;SDS011;12772;49.794;10.024;2023-07-28T16:50:40;1.10;;;1.10;;
24635;SDS011;12772;49.794;10.024;2023-07-28T16:54:42;0.98;;;0.98;;
24635;SDS011;12772;49.794;10.024;2023-07-28T16:58:44;1.00;;;1.00;;
24635;SDS011;12772;49.794;10.024;2023-07-28T17:02:46;1.38;;;1.27;;
24635;SDS011;12772;49.794;10.024;2023-07-28T17:06:49;1.27;;;1.00;;
24635;SDS011;12772;49.794;10.024;2023-07-28T17:10:51;1.40;;;1.30;;
24635;SDS011;12772;49.794;10.024;2023-07-28T17:14:53;3.55;;;1.05;;
24635;SDS011;12772;49.794;10.024;2023-07-28T17:18:55;0.90;;;0.90;;
24635;SDS011;12772;49.794;10.024;2023-07-28T17:22:57;0.70;;;0.70;;
24635;SDS011;12772;49.794;10.024;2023-07-28T17:26:59;2.35;;;0.93;;
24635;SDS011;12772;49.794;10.024;2023-07-28T17:31:01;0.70;;;0.70;;
24635;SDS011;12772;49.794;10.024;2023-07-28T17:35:03;0.88;;;0.88;;
24635;SDS011;12772;49.794;10.024;2023-07-28T17:39:06;0.77;;;0.77;;
24635;SDS011;12772;49.794;10.024;2023-07-28T17:43:08;1.05;;;1.00;;
24635;SDS011;12772;49.794;10.024;2023-07-28T17:47:10;1.02;;;1.02;;
24635;SDS011;12772;49.794;10.024;2023-07-28T17:51:12;0.80;;;0.80;;
24635;SDS011;12772;49.794;10.024;2023-07-28T17:55:14;1.33;;;0.90;;
24635;SDS011;12772;49.794;10.024;2023-07-28T17:59:17;1.10;;;1.00;;
24635;SDS011;12772;49.794;10.024;2023-07-28T18:03:19;1.00;;;0.90;;
24635;SDS011;12772;49.794;10.024;2023-07-28T18:07:21;1.27;;;1.17;;
24635;SDS011;12772;49.794;10.024;2023-07-28T18:11:24;1.10;;;1.10;;
24635;SDS011;12772;49.794;10.024;2023-07-28T18:15:26;0.93;;;0.82;;
24635;SDS011;12772;49.794;10.024;2023-07-28T18:19:28;0.88;;;0.88;;
24635;SDS011;12772;49.794;10.024;2023-07-28T18:23:30;0.80;;;0.80;;
24635;SDS011;12772;49.794;10.024;2023-07-28T18:27:32;1.08;;;1.08;;
24635;SDS011;12772;49.794;10.024;2023-07-28T18:31:34;1.15;;;1.08;;
24635;SDS011;12772;49.794;10.024;2023-07-28T18:35:36;0.90;;;0.90;;
24635;SDS011;12772;49.794;10.024;2023-07-28T18:39:38;1.67;;;1.20;;
24635;SDS011;12772;49.794;10.024;2023-07-28T18:43:40;1.00;;;1.00;;
24635;SDS011;12772;49.794;10.024;2023-07-28T18:47:42;1.10;;;1.00;;
24635;SDS011;12772;49.794;10.024;2023-07-28T18:51:44;1.30;;;1.17;;
24635;SDS011;12772;49.794;10.024;2023-07-28T18:55:46;2.05;;;1.08;;
24635;SDS011;12772;49.794;10.024;2023-07-28T18:59:48;0.90;;;0.90;;
24635;SDS011;12772;49.794;10.024;2023-07-28T19:03:50;2.50;;;1.23;;
24635;SDS011;12772;49.794;10.024;2023-07-28T19:07:52;1.10;;;1.10;;
24635;SDS011;12772;49.794;10.024;2023-07-28T19:11:54;1.48;;;1.25;;
24635;SDS011;12772;49.794;10.024;2023-07-28T19:15:56;0.90;;;0.90;;
24635;SDS011;12772;49.794;10.024;2023-07-28T19:19:58;1.48;;;1.38;;
24635;SDS011;12772;49.794;10.024;2023-07-28T19:24:00;1.08;;;1.08;;
24635;SDS011;12772;49.794;10.024;2023-07-28T19:28:02;1.02;;;1.02;;
24635;SDS011;12772;49.794;10.024;2023-07-28T19:32:05;0.95;;;0.95;;
24635;SDS011;12772;49.794;10.024;2023-07-28T19:36:07;1.27;;;1.20;;
24635;SDS011;12772;49.794;10.024;2023-07-28T19:40:09;1.45;;;1.17;;
24635;SDS011;12772;49.794;10.024;2023-07-28T19:44:12;1.23;;;1.23;;
24635;SDS011;12772;49.794;10.024;2023-07-28T19:48:14;1.27;;;1.17;;
24635;SDS011;12772;49.794;10.024;2023-07-28T19:52:16;1.00;;;1.00;;
24635;SDS011;12772;49.794;10.024;2023-07-28T19:56:18;1.23;;;1.13;;
24635;SDS011;12772;49.794;10.024;2023-07-28T20:00:20;1.00;;;1.00;;
24635;SDS011;12772;49.794;10.024;2023-07-28T20:04:22;1.10;;;1.10;;
24635;SDS011;12772;49.794;10.024;2023-07-28T20:08:26;2.95;;;1.40;;
24635;SDS011;12772;49.794;10.024;2023-07-28T20:12:28;0.95;;;0.95;;
24635;SDS011;12772;49.794;10.024;2023-07-28T20:16:32;0.93;;;0.93;;
24635;SDS011;12772;49.794;10.024;2023-07-28T20:20:34;0.90;;;0.90;;
24635;SDS011;12772;49.794;10.024;2023-07-28T20:24:36;1.23;;;1.20;;
24635;SDS011;12772;49.794;10.024;2023-07-28T20:28:39;1.33;;;1.23;;
24635;SDS011;12772;49.794;10.024;2023-07-28T20:32:41;1.25;;;1.15;;
24635;SDS011;12772;49.794;10.024;2023-07-28T20:36:43;1.10;;;1.10;;
24635;SDS011;12772;49.794;10.024;2023-07-28T20:40:45;1.10;;;1.10;;
24635;SDS011;12772;49.794;10.024;2023-07-28T20:44:47;3.70;;;1.20;;
24635;SDS011;12772;49.794;10.024;2023-07-28T20:48:49;2.42;;;1.33;;
24635;SDS011;12772;49.794;10.024;2023-07-28T20:52:51;1.42;;;1.33;;
24635;SDS011;12772;49.794;10.024;2023-07-28T20:56:53;1.45;;;1.40;;
24635;SDS011;12772;49.794;10.024;2023-07-28T21:00:55;1.30;;;1.30;;
24635;SDS011;12772;49.794;10.024;2023-07-28T21:04:57;1.50;;;1.40;;
24635;SDS011;12772;49.794;10.024;2023-07-28T21:09:00;1.83;;;1.52;;
24635;SDS011;12772;49.794;10.024;2023-07-28T21:13:03;1.30;;;1.23;;
24635;SDS011;12772;49.794;10.024;2023-07-28T21:17:06;1.35;;;1.30;;
24635;SDS011;12772;49.794;10.024;2023-07-28T21:21:08;1.60;;;1.50;;
24635;SDS011;12772;49.794;10.024;2023-07-28T21:25:10;3.63;;;1.52;;
24635;SDS011;12772;49.794;10.024;2023-07-28T21:29:12;1.63;;;1.52;;
24635;SDS011;12772;49.794;10.024;2023-07-28T21:33:14;1.75;;;1.63;;
24635;SDS011;12772;49.794;10.024;2023-07-28T21:37:16;1.80;;;1.70;;
24635;SDS011;12772;49.794;10.024;2023-07-28T21:41:18;1.92;;;1.77;;
24635;SDS011;12772;49.794;10.024;2023-07-28T21:45:20;2.38;;;1.70;;
24635;SDS011;12772;49.794;10.024;2023-07-28T21:49:22;1.63;;;1.52;;
24635;SDS011;12772;49.794;10.024;2023-07-28T21:53:24;1.90;;;1.80;;
24635;SDS011;12772;49.794;10.024;2023-07-28T21:57:26;3.05;;;1.95;;
24635;SDS011;12772;49.794;10.024;2023-07-28T22:01:28;1.88;;;1.77;;
24635;SDS011;12772;49.794;10.024;2023-07-28T22:05:30;1.80;;;1.70;;
24635;SDS011;12772;49.794;10.024;2023-07-28T22:09:32;1.90;;;1.80;;
24635;SDS011;12772;49.794;10.024;2023-07-28T22:13:34;3.20;;;1.90;;
24635;SDS011;12772;49.794;10.024;2023-07-28T22:17:36;1.70;;;1.60;;
24635;SDS011;12772;49.794;10.024;2023-07-28T22:21:39;1.73;;;1.63;;
24635;SDS011;12772;49.794;10.024;2023-07-28T22:25:42;2.00;;;1.77;;
24635;SDS011;12772;49.794;10.024;2023-07-28T22:29:45;2.67;;;1.83;;
24635;SDS011;12772;49.794;10.024;2023-07-28T22:33:51;1.80;;;1.70;;
24635;SDS011;12772;49.794;10.024;2023-07-28T22:37:53;2.42;;;1.92;;
24635;SDS011;12772;49.794;10.024;2023-07-28T22:41:55;1.85;;;1.67;;
24635;SDS011;12772;49.794;10.024;2023-07-28T22:45:57;1.58;;;1.58;;
24635;SDS011;12772;49.794;10.024;2023-07-28T22:49:59;2.42;;;1.90;;
24635;SDS011;12772;49.794;10.024;2023-07-28T22:54:01;1.98;;;1.88;;
24635;SDS011;12772;49.794;10.024;2023-07-28T22:58:03;2.40;;;2.20;;
24635;SDS011;12772;49.794;10.024;2023-07-28T23:02:05;2.28;;;2.17;;
24635;SDS011;12772;49.794;10.024;2023-07-28T23:06:07;4.45;;;2.72;;
24635;SDS011;12772;49.794;10.024;2023-07-28T23:10:09;2.35;;;2.15;;
24635;SDS011;12772;49.794;10.024;2023-07-28T23:14:11;3.00;;;2.72;;
24635;SDS011;12772;49.794;10.024;2023-07-28T23:18:13;2.90;;;2.75;;
24635;SDS011;12772;49.794;10.024;2023-07-28T23:22:16;3.55;;;3.30;;
24635;SDS011;12772;49.794;10.024;2023-07-28T23:26:18;2.90;;;2.75;;
24635;SDS011;12772;49.794;10.024;2023-07-28T23:30:20;3.00;;;2.80;;
24635;SDS011;12772;49.794;10.024;2023-07-28T23:34:22;3.47;;;3.28;;
24635;SDS011;12772;49.794;10.024;2023-07-28T23:38:24;3.15;;;2.95;;
24635;SDS011;12772;49.794;10.024;2023-07-28T23:42:26;3.78;;;3.38;;
24635;SDS011;12772;49.794;10.024;2023-07-28T23:46:28;3.65;;;3.35;;
24635;SDS011;12772;49.794;10.024;2023-07-28T23:50:30;3.35;;;3.15;;
24635;SDS011;12772;49.794;10.024;2023-07-28T23:54:32;3.67;;;3.38;;
24635;SDS011;12772;49.794;10.024;2023-07-28T23:58:34;3.63;;;3.33;;
